Terminal Aerodrome Forecast
Issued by NWS

Home | Current Version | Previous Version | Text Only | Print | Product List | Glossary On
Versions: 1 2 3 4 5 6 7 8 9 10 11 12 13 14 15 16 17 18 19 20 21 22 23 24 25 26 27 28 29
000
FTUS43 KSGF 240000 AAA
TAFBBG
TAF AMD
KBBG 240022Z 2400/2424 24010KT 5SM -SHRA BR VCTS OVC015CB
      TEMPO 2400/2402 VRB15G25KT 2SM TSRA BR BKN007 OVC015CB
     FM240400 30020G28KT 5SM -RA BR OVC008
     FM240800 29018G27KT P6SM -DZ OVC012
     FM241500 28017G27KT P6SM SCT015
     FM241900 27014G20KT P6SM SCT035=

USA.gov is the U.S. government's official web portal to all federal, state and local government web resources and services.